createdAt,value
2019-06-07T00:01:52.557Z,12.90
2019-06-07T00:04:21.673Z,12.70
2019-06-07T00:06:51.038Z,12.60
2019-06-07T00:09:22.626Z,12.60
2019-06-07T00:11:50.792Z,12.70
2019-06-07T00:14:21.168Z,12.70
2019-06-07T00:16:50.459Z,12.70
2019-06-07T00:19:19.530Z,12.80
2019-06-07T00:24:21.706Z,12.50
2019-06-07T00:26:58.287Z,12.50
2019-06-07T00:29:21.968Z,12.50
2019-06-07T00:31:51.533Z,12.30
2019-06-07T00:34:22.989Z,12.30
2019-06-07T00:36:51.394Z,12.40
2019-06-07T00:39:25.172Z,12.40
2019-06-07T00:42:02.680Z,12.30
2019-06-07T00:44:31.743Z,12.30
2019-06-07T00:47:01.116Z,12.30
2019-06-07T00:49:40.372Z,12.40
2019-06-07T00:52:00.940Z,12.40
2019-06-07T00:54:29.973Z,12.30
2019-06-07T00:56:58.998Z,12.30
2019-06-07T00:59:29.484Z,12.20
2019-06-07T01:01:58.932Z,12.10
2019-06-07T01:04:28.368Z,12.20
2019-06-07T01:06:57.467Z,12.30
2019-06-07T01:09:26.842Z,12.30
2019-06-07T01:11:55.943Z,12.30
2019-06-07T01:14:28.149Z,12.30
2019-06-07T01:17:01.436Z,12.30
2019-06-07T01:19:27.871Z,12.30
2019-06-07T01:21:57.323Z,12.30
2019-06-07T01:24:27.628Z,12.30
2019-06-07T01:26:57.060Z,12.10
2019-06-07T01:29:29.505Z,12.20
2019-06-07T01:31:57.658Z,12.10
2019-06-07T01:34:26.987Z,12.10
2019-06-07T01:36:56.325Z,12.10
2019-06-07T01:39:29.791Z,12.00
2019-06-07T01:41:56.466Z,12.00
2019-06-07T01:44:28.105Z,12.00
2019-06-07T01:46:56.297Z,12.00
2019-06-07T01:49:27.753Z,12.00
2019-06-07T01:51:56.485Z,12.00
2019-06-07T01:54:52.265Z,12.00
2019-06-07T01:56:57.860Z,12.00
2019-06-07T01:59:28.567Z,12.00
2019-06-07T02:01:58.166Z,12.00
2019-06-07T02:04:31.911Z,11.90
2019-06-07T02:06:58.309Z,11.90
2019-06-07T02:09:29.851Z,11.90
2019-06-07T02:11:58.514Z,11.90
2019-06-07T02:14:30.611Z,11.90
2019-06-07T02:16:58.708Z,11.90
2019-06-07T02:19:32.707Z,11.80
2019-06-07T02:21:58.549Z,11.80
2019-06-07T02:24:29.636Z,11.70
2019-06-07T02:26:58.941Z,11.70
2019-06-07T02:29:31.218Z,11.60
2019-06-07T02:31:58.638Z,11.60
2019-06-07T02:34:31.858Z,11.60
2019-06-07T02:36:58.554Z,11.60
2019-06-07T02:39:30.434Z,11.50
2019-06-07T02:41:58.519Z,11.50
2019-06-07T02:44:30.624Z,11.50
2019-06-07T02:46:58.580Z,11.50
2019-06-07T02:49:31.348Z,11.50
2019-06-07T02:51:59.111Z,11.50
2019-06-07T02:54:33.643Z,11.50
2019-06-07T02:56:59.410Z,11.50
2019-06-07T03:00:00.150Z,11.50
2019-06-07T03:02:02.033Z,11.60
2019-06-07T03:04:34.915Z,11.60
2019-06-07T03:07:03.442Z,11.60
2019-06-07T03:09:36.402Z,11.60
2019-06-07T03:12:05.084Z,11.70
2019-06-07T03:14:37.034Z,11.60
2019-06-07T03:17:21.057Z,11.70
2019-06-07T03:19:52.991Z,11.70
2019-06-07T03:22:22.074Z,11.70
2019-06-07T03:24:52.074Z,11.80
2019-06-07T03:27:48.653Z,11.80
2019-06-07T03:29:52.322Z,11.70
2019-06-07T03:32:21.380Z,11.80
2019-06-07T03:34:50.715Z,11.80
2019-06-07T03:37:19.682Z,11.80
2019-06-07T03:39:48.760Z,11.80
2019-06-07T03:42:17.750Z,11.80
2019-06-07T03:44:46.776Z,11.80
2019-06-07T03:47:15.866Z,11.90
2019-06-07T03:49:44.918Z,11.90
2019-06-07T03:52:13.969Z,12.00
2019-06-07T03:54:43.523Z,12.00
2019-06-07T03:57:12.582Z,12.00
2019-06-07T03:59:41.727Z,12.00
2019-06-07T04:02:10.749Z,12.00
2019-06-07T04:04:40.061Z,12.00
2019-06-07T04:07:09.097Z,12.00
2019-06-07T04:09:42.496Z,12.10
2019-06-07T04:12:08.965Z,12.10
2019-06-07T04:14:40.874Z,12.20
2019-06-07T04:17:08.738Z,12.20
2019-06-07T04:19:42.108Z,12.30
2019-06-07T04:22:08.517Z,12.30
2019-06-07T04:24:40.174Z,12.30
2019-06-07T04:27:08.634Z,12.30
2019-06-07T04:30:02.959Z,12.40
2019-06-07T04:32:08.712Z,12.40
2019-06-07T04:34:42.590Z,12.40
2019-06-07T04:37:09.710Z,12.30
2019-06-07T04:39:44.682Z,12.20
2019-06-07T04:42:11.371Z,12.20
2019-06-07T04:44:42.877Z,12.20
2019-06-07T04:47:14.532Z,12.20
2019-06-07T04:49:44.492Z,12.30
2019-06-07T04:52:14.434Z,12.40
2019-06-07T04:54:45.887Z,12.50
2019-06-07T04:57:14.265Z,12.30
2019-06-07T05:02:14.142Z,12.20
2019-06-07T05:04:52.908Z,12.30
2019-06-07T05:07:22.001Z,12.30
2019-06-07T05:09:51.005Z,12.20
2019-06-07T05:12:20.062Z,12.30
2019-06-07T05:14:49.180Z,12.30
2019-06-07T05:17:18.206Z,12.40
2019-06-07T05:19:47.171Z,12.50
2019-06-07T05:22:16.324Z,12.50
2019-06-07T05:24:45.371Z,12.50
2019-06-07T05:27:14.462Z,12.60
2019-06-07T05:29:44.376Z,12.60
2019-06-07T05:32:15.117Z,12.60
2019-06-07T05:34:47.268Z,12.70
2019-06-07T05:37:15.261Z,12.80
2019-06-07T05:39:46.477Z,12.90
2019-06-07T05:42:15.629Z,13.00
2019-06-07T05:44:45.888Z,13.10
2019-06-07T05:47:15.423Z,13.00
2019-06-07T05:49:46.968Z,13.10
2019-06-07T05:52:15.484Z,13.20
2019-06-07T05:54:46.841Z,13.20
2019-06-07T05:57:15.300Z,13.20
2019-06-07T05:59:47.243Z,13.30
2019-06-07T06:02:22.451Z,13.30
2019-06-07T06:04:49.232Z,13.50
2019-06-07T06:07:16.781Z,13.60
2019-06-07T06:09:46.202Z,13.60
2019-06-07T06:12:33.445Z,13.70
2019-06-07T06:14:47.064Z,13.70
2019-06-07T06:17:16.260Z,13.70
2019-06-07T06:19:49.503Z,13.80
2019-06-07T06:22:16.081Z,13.90
2019-06-07T06:25:22.569Z,14.00
2019-06-07T06:27:55.677Z,14.20
2019-06-07T06:29:50.100Z,14.20
2019-06-07T06:34:50.662Z,14.40
2019-06-07T06:37:19.621Z,14.60
2019-06-07T06:39:50.175Z,14.50
2019-06-07T06:42:19.501Z,14.50
2019-06-07T06:44:53.609Z,14.60
2019-06-07T06:47:19.506Z,14.80
2019-06-07T06:49:50.004Z,14.80
2019-06-07T06:52:19.982Z,14.80
2019-06-07T06:54:59.271Z,14.70
2019-06-07T06:57:20.481Z,14.70
2019-06-07T06:59:52.512Z,14.80
2019-06-07T07:02:20.566Z,15.00
2019-06-07T07:04:53.522Z,15.10
2019-06-07T07:07:20.494Z,15.20
2019-06-07T07:09:54.964Z,15.10
2019-06-07T07:12:20.342Z,15.00
2019-06-07T07:14:52.164Z,15.10
2019-06-07T07:17:41.151Z,15.20
2019-06-07T07:19:53.078Z,15.20
2019-06-07T07:22:22.412Z,15.40
2019-06-07T07:24:54.745Z,15.50
2019-06-07T07:27:23.692Z,15.50
2019-06-07T07:30:29.338Z,15.70
2019-06-07T07:32:23.460Z,15.80
2019-06-07T07:35:00.029Z,16.00
2019-06-07T07:37:23.473Z,16.00
2019-06-07T07:40:00.700Z,16.20
2019-06-07T07:42:23.948Z,16.30
2019-06-07T07:44:55.077Z,16.50
2019-06-07T07:47:24.066Z,16.60
2019-06-07T07:49:58.572Z,16.70
2019-06-07T07:52:24.448Z,16.80
2019-06-07T07:54:56.609Z,16.80
2019-06-07T07:57:24.610Z,16.80
2019-06-07T08:00:05.975Z,17.00
2019-06-07T08:02:24.998Z,17.10
2019-06-07T08:05:16.602Z,17.10
2019-06-07T08:07:25.027Z,17.10
2019-06-07T08:09:59.592Z,17.30
2019-06-07T08:12:24.894Z,17.40
2019-06-07T08:14:58.616Z,17.30
2019-06-07T08:17:24.665Z,17.30
2019-06-07T08:19:54.998Z,17.50
2019-06-07T08:22:24.504Z,17.70
2019-06-07T08:24:55.314Z,17.80
2019-06-07T08:27:26.701Z,17.70
2019-06-07T08:30:15.666Z,17.90
2019-06-07T08:32:26.137Z,18.00
2019-06-07T08:35:01.739Z,18.30
2019-06-07T08:38:13.530Z,18.40
2019-06-07T08:40:01.059Z,18.60
2019-06-07T08:42:37.019Z,18.70
2019-06-07T08:45:03.607Z,18.90
2019-06-07T08:47:30.518Z,18.80
2019-06-07T08:50:07.087Z,18.80
2019-06-07T08:52:30.441Z,19.00
2019-06-07T08:55:03.387Z,19.10
2019-06-07T08:57:30.461Z,19.10
2019-06-07T09:00:06.512Z,19.10
2019-06-07T09:02:30.559Z,19.20
2019-06-07T09:05:05.490Z,19.30
2019-06-07T09:07:30.383Z,19.60
2019-06-07T09:10:03.467Z,19.70
2019-06-07T09:12:30.631Z,19.70
2019-06-07T09:15:18.292Z,19.60
2019-06-07T09:17:31.008Z,19.60
2019-06-07T09:20:06.343Z,19.70
2019-06-07T09:22:31.129Z,19.90
2019-06-07T09:25:06.788Z,19.90
2019-06-07T09:27:31.446Z,19.60
2019-06-07T09:30:05.751Z,19.70
2019-06-07T09:32:31.959Z,20.10
2019-06-07T09:35:08.128Z,20.30
2019-06-07T09:38:04.600Z,20.10
2019-06-07T09:40:19.595Z,20.40
2019-06-07T09:42:34.263Z,20.40
2019-06-07T09:45:06.556Z,20.20
2019-06-07T09:47:34.102Z,20.40
2019-06-07T09:50:06.010Z,20.50
2019-06-07T09:52:56.485Z,20.50
2019-06-07T09:55:19.609Z,20.80
2019-06-07T09:57:35.778Z,20.90
2019-06-07T10:00:38.247Z,21.00
2019-06-07T10:02:39.881Z,21.10
2019-06-07T10:05:13.965Z,21.00
2019-06-07T10:07:51.454Z,21.30
2019-06-07T10:12:41.772Z,21.60
2019-06-07T10:15:10.998Z,21.60
2019-06-07T10:17:40.344Z,21.40
2019-06-07T10:20:10.217Z,21.40
2019-06-07T10:22:39.258Z,21.40
2019-06-07T10:25:08.574Z,21.60
2019-06-07T10:27:37.889Z,21.70
2019-06-07T10:30:08.225Z,21.80
2019-06-07T10:32:37.527Z,21.80
2019-06-07T10:35:08.146Z,21.80
2019-06-07T10:37:37.921Z,22.10
2019-06-07T10:40:07.175Z,22.10
2019-06-07T10:42:36.222Z,22.30
2019-06-07T10:45:07.985Z,22.40
2019-06-07T10:47:37.080Z,22.40
2019-06-07T10:50:08.059Z,22.50
2019-06-07T10:52:46.085Z,22.40
2019-06-07T10:55:19.525Z,22.60
2019-06-07T10:57:48.582Z,22.50
2019-06-07T11:00:20.776Z,22.60
2019-06-07T11:02:49.923Z,22.90
2019-06-07T11:05:20.015Z,23.10
2019-06-07T11:07:49.075Z,22.90
2019-06-07T11:10:20.159Z,23.00
2019-06-07T11:12:49.055Z,23.10
2019-06-07T11:15:18.251Z,23.20
2019-06-07T11:18:08.295Z,23.20
2019-06-07T11:20:37.780Z,23.30
2019-06-07T11:23:08.159Z,23.30
2019-06-07T11:25:37.504Z,23.50
2019-06-07T11:28:06.636Z,23.50
2019-06-07T11:30:35.705Z,23.70
2019-06-07T11:33:06.304Z,23.50
2019-06-07T11:35:35.501Z,23.40
2019-06-07T11:38:04.576Z,23.60
2019-06-07T11:40:44.518Z,23.80
2019-06-07T11:43:16.347Z,24.00
2019-06-07T11:45:46.502Z,24.10
2019-06-07T11:48:17.600Z,24.00
2019-06-07T11:50:47.536Z,24.00
2019-06-07T11:53:28.203Z,24.00
2019-06-07T11:55:57.884Z,24.10
2019-06-07T11:58:30.827Z,24.70
2019-06-07T12:01:00.751Z,25.00
2019-06-07T12:03:30.256Z,24.50
2019-06-07T12:05:59.567Z,24.80
2019-06-07T12:08:29.105Z,25.30
2019-06-07T12:10:58.368Z,25.50
2019-06-07T12:13:28.253Z,25.40
2019-06-07T12:16:29.823Z,25.40
2019-06-07T12:18:59.110Z,25.70
2019-06-07T12:21:46.631Z,25.40
2019-06-07T12:24:16.211Z,25.20
2019-06-07T12:26:45.408Z,25.10
2019-06-07T12:29:14.930Z,25.10
2019-06-07T12:31:44.023Z,25.20
2019-06-07T12:34:13.321Z,25.30
2019-06-07T12:36:42.928Z,25.50
2019-06-07T12:39:12.022Z,25.60
2019-06-07T12:41:45.775Z,25.40
2019-06-07T12:44:14.915Z,25.60
2019-06-07T12:46:44.742Z,25.70
2019-06-07T12:49:15.014Z,25.80
2019-06-07T12:51:47.201Z,25.80
2019-06-07T12:54:17.601Z,26.00
2019-06-07T12:56:52.224Z,26.00
2019-06-07T12:59:24.193Z,25.80
2019-06-07T13:01:54.984Z,25.90
2019-06-07T13:04:24.983Z,25.90
2019-06-07T13:06:57.692Z,25.70
2019-06-07T13:09:28.077Z,25.80
2019-06-07T13:11:58.923Z,25.80
2019-06-07T13:14:28.636Z,25.50
2019-06-07T13:16:58.648Z,25.70
2019-06-07T13:19:28.599Z,25.40
2019-06-07T13:21:58.144Z,25.50
2019-06-07T13:24:33.357Z,25.60
2019-06-07T13:27:08.548Z,25.90
2019-06-07T13:29:37.739Z,26.30
2019-06-07T13:32:07.155Z,26.60
2019-06-07T13:34:37.006Z,26.70
2019-06-07T13:37:14.574Z,26.60
2019-06-07T13:39:47.422Z,26.50
2019-06-07T13:42:18.326Z,26.00
2019-06-07T13:44:47.979Z,25.90
2019-06-07T13:47:18.932Z,26.40
2019-06-07T13:50:01.183Z,26.30
2019-06-07T13:52:30.388Z,26.20
2019-06-07T13:55:02.127Z,26.20
2019-06-07T13:57:30.656Z,26.00
2019-06-07T14:00:00.039Z,26.30
2019-06-07T14:02:29.860Z,26.90
2019-06-07T14:04:59.254Z,27.00
2019-06-07T14:07:29.693Z,26.90
2019-06-07T14:09:59.155Z,27.60
2019-06-07T14:12:28.276Z,27.60
2019-06-07T14:14:57.314Z,28.10
2019-06-07T14:17:28.329Z,28.70
2019-06-07T14:19:57.543Z,28.70
2019-06-07T14:22:26.968Z,28.60
2019-06-07T14:24:56.171Z,28.80
2019-06-07T14:27:27.557Z,28.40
2019-06-07T14:29:56.823Z,27.90
2019-06-07T14:32:26.633Z,27.90
2019-06-07T14:34:55.783Z,27.60
2019-06-07T14:37:25.015Z,27.90
2019-06-07T14:39:54.178Z,28.10
2019-06-07T14:42:23.450Z,28.00
2019-06-07T14:44:52.709Z,26.60
2019-06-07T14:47:21.831Z,26.50
2019-06-07T14:49:50.966Z,26.40
2019-06-07T14:52:20.146Z,25.90
2019-06-07T14:54:49.322Z,26.40
2019-06-07T14:57:18.798Z,26.20
2019-06-07T14:59:48.366Z,25.80
2019-06-07T15:02:17.592Z,25.70
2019-06-07T15:04:47.706Z,25.50
2019-06-07T15:07:17.038Z,25.30
2019-06-07T15:09:46.103Z,25.20
2019-06-07T15:12:24.705Z,25.10
2019-06-07T15:14:48.061Z,24.80
2019-06-07T15:17:17.442Z,24.50
2019-06-07T15:19:46.485Z,23.80
2019-06-07T15:22:15.688Z,23.60
2019-06-07T15:24:45.132Z,23.20
2019-06-07T15:27:15.222Z,23.30
2019-06-07T15:29:44.331Z,23.30
2019-06-07T15:32:20.248Z,23.30
2019-06-07T15:34:49.667Z,23.20
2019-06-07T15:37:18.877Z,23.20
2019-06-07T15:39:48.060Z,23.10
2019-06-07T15:42:17.284Z,23.00
2019-06-07T15:44:46.487Z,22.70
2019-06-07T15:47:15.615Z,21.90
2019-06-07T15:49:44.830Z,20.60
2019-06-07T15:52:14.092Z,20.10
2019-06-07T15:54:43.191Z,19.80
2019-06-07T15:57:12.306Z,20.20
2019-06-07T15:59:41.580Z,20.40
2019-06-07T16:02:11.622Z,20.70
2019-06-07T16:04:41.973Z,20.90
2019-06-07T16:07:11.357Z,20.90
2019-06-07T16:09:40.725Z,21.00
2019-06-07T16:12:09.891Z,21.10
2019-06-07T16:14:39.264Z,21.10
2019-06-07T16:17:09.016Z,21.00
2019-06-07T16:19:42.858Z,21.60
2019-06-07T16:22:09.139Z,21.60
2019-06-07T16:24:39.757Z,21.20
2019-06-07T16:27:09.156Z,20.70
2019-06-07T16:29:38.614Z,21.50
2019-06-07T16:32:07.752Z,22.40
2019-06-07T16:34:37.857Z,21.60
2019-06-07T16:37:07.974Z,21.90
2019-06-07T16:39:38.115Z,21.60
2019-06-07T16:42:07.298Z,21.40
2019-06-07T16:44:36.466Z,20.60
2019-06-07T16:47:05.579Z,20.30
2019-06-07T16:49:34.742Z,19.90
2019-06-07T16:52:03.884Z,20.40
2019-06-07T16:54:35.531Z,20.10
2019-06-07T16:57:03.922Z,19.70
2019-06-07T16:59:33.011Z,19.30
2019-06-07T17:02:02.252Z,19.10
2019-06-07T17:04:31.406Z,18.90
2019-06-07T17:07:00.638Z,18.80
2019-06-07T17:09:29.744Z,18.70
2019-06-07T17:11:58.977Z,18.60
2019-06-07T17:14:28.305Z,18.50
2019-06-07T17:16:57.457Z,18.40
2019-06-07T17:19:26.545Z,18.40
2019-06-07T17:21:56.031Z,18.30
2019-06-07T17:24:26.674Z,18.40
2019-06-07T17:26:55.396Z,18.40
2019-06-07T17:29:24.814Z,18.10
2019-06-07T17:31:54.430Z,18.10
2019-06-07T17:34:23.504Z,18.20
2019-06-07T17:36:52.709Z,18.20
2019-06-07T17:39:21.973Z,18.40
2019-06-07T17:42:01.636Z,18.20
2019-06-07T17:44:23.028Z,18.20
2019-06-07T17:46:52.144Z,18.20
2019-06-07T17:49:21.411Z,18.10
2019-06-07T17:51:52.028Z,18.00
2019-06-07T17:54:21.638Z,18.00
2019-06-07T17:56:50.766Z,17.90
2019-06-07T17:59:19.879Z,17.90
2019-06-07T18:02:12.757Z,17.90
2019-06-07T18:04:20.434Z,17.90
2019-06-07T18:06:53.626Z,17.80
2019-06-07T18:09:24.899Z,17.70
2019-06-07T18:11:57.781Z,17.80
2019-06-07T18:14:30.034Z,17.80
2019-06-07T18:17:04.276Z,17.90
2019-06-07T18:19:33.603Z,18.00
2019-06-07T18:22:02.759Z,17.90
2019-06-07T18:24:32.009Z,17.80
2019-06-07T18:27:01.167Z,17.90
2019-06-07T18:29:30.430Z,17.70
2019-06-07T18:32:00.351Z,17.80
2019-06-07T18:34:29.507Z,17.60
2019-06-07T18:36:59.311Z,17.60
2019-06-07T18:39:28.434Z,17.70
2019-06-07T18:41:57.570Z,17.80
2019-06-07T18:44:26.630Z,17.80
2019-06-07T18:46:55.759Z,17.70
2019-06-07T18:49:27.321Z,17.70
2019-06-07T18:52:31.213Z,17.80
2019-06-07T18:55:00.385Z,17.80
2019-06-07T18:57:29.404Z,17.80
2019-06-07T18:59:58.893Z,17.80
2019-06-07T19:02:28.199Z,17.80
2019-06-07T19:04:58.426Z,17.80
2019-06-07T19:07:27.709Z,17.90
2019-06-07T19:09:57.540Z,17.90
2019-06-07T19:12:26.742Z,18.00
2019-06-07T19:14:57.594Z,17.80
2019-06-07T19:17:26.829Z,17.80
2019-06-07T19:19:56.291Z,17.80
2019-06-07T19:22:25.519Z,17.90
2019-06-07T19:24:54.693Z,17.80
2019-06-07T19:27:23.759Z,17.80
2019-06-07T19:29:52.921Z,17.70
2019-06-07T19:32:22.325Z,17.80
2019-06-07T19:34:53.144Z,17.70
2019-06-07T19:37:22.859Z,17.80
2019-06-07T19:39:53.825Z,17.70
2019-06-07T19:42:23.002Z,17.70
2019-06-07T19:44:58.211Z,17.70
2019-06-07T19:47:23.215Z,17.70
2019-06-07T19:49:54.909Z,17.60
2019-06-07T19:52:28.045Z,17.60
2019-06-07T19:54:57.563Z,17.60
2019-06-07T19:57:27.130Z,17.60
2019-06-07T19:59:57.466Z,17.50
2019-06-07T20:02:26.775Z,17.50
2019-06-07T20:04:59.460Z,17.50
2019-06-07T20:07:26.608Z,17.50
2019-06-07T20:09:56.495Z,17.50
2019-06-07T20:12:25.846Z,17.40
2019-06-07T20:15:13.601Z,17.30
2019-06-07T20:17:25.589Z,17.40
2019-06-07T20:19:54.735Z,17.40
2019-06-07T20:22:23.786Z,17.30
2019-06-07T20:24:52.923Z,17.30
2019-06-07T20:27:22.104Z,17.20
2019-06-07T20:29:51.479Z,17.20
2019-06-07T20:32:20.647Z,17.20
2019-06-07T20:34:49.723Z,17.20
2019-06-07T20:37:18.769Z,17.20
2019-06-07T20:39:47.830Z,17.30
2019-06-07T20:42:17.008Z,17.20
2019-06-07T20:44:46.103Z,17.10
2019-06-07T20:47:15.390Z,17.10
2019-06-07T20:49:44.509Z,17.10
2019-06-07T20:52:13.583Z,17.00
2019-06-07T20:54:42.758Z,16.90
2019-06-07T20:57:11.823Z,16.90
2019-06-07T20:59:40.879Z,16.80
2019-06-07T21:02:09.912Z,16.90
2019-06-07T21:04:39.027Z,16.90
2019-06-07T21:07:10.004Z,16.90
2019-06-07T21:09:39.371Z,16.80
2019-06-07T21:12:09.939Z,16.80
2019-06-07T21:14:39.090Z,16.70
2019-06-07T21:17:08.303Z,16.70
2019-06-07T21:19:37.401Z,16.80
2019-06-07T21:22:06.820Z,16.80
2019-06-07T21:24:35.975Z,16.90
2019-06-07T21:27:05.384Z,16.80
2019-06-07T21:29:34.554Z,16.80
2019-06-07T21:32:03.587Z,16.70
2019-06-07T21:34:32.763Z,16.80
2019-06-07T21:37:01.814Z,16.70
2019-06-07T21:39:30.885Z,16.80
2019-06-07T21:41:59.915Z,16.90
2019-06-07T21:44:28.980Z,16.90
2019-06-07T21:46:58.077Z,16.90
2019-06-07T21:49:27.130Z,16.90
2019-06-07T21:51:57.677Z,17.10
2019-06-07T21:54:26.726Z,17.00
2019-06-07T21:56:55.818Z,17.00
2019-06-07T21:59:24.902Z,17.00
2019-06-07T22:01:54.286Z,17.00
2019-06-07T22:04:23.346Z,17.00
2019-06-07T22:06:52.896Z,17.00
2019-06-07T22:09:21.956Z,17.10
2019-06-07T22:11:50.834Z,17.10
2019-06-07T22:14:19.871Z,17.10
2019-06-07T22:16:48.968Z,17.00
2019-06-07T22:19:17.923Z,17.00
2019-06-07T22:22:01.691Z,17.00
2019-06-07T22:24:17.817Z,16.90
2019-06-07T22:26:46.886Z,17.00
2019-06-07T22:29:15.934Z,17.00
2019-06-07T22:31:44.958Z,17.00
2019-06-07T22:34:15.105Z,17.00
2019-06-07T22:36:44.465Z,16.90
2019-06-07T22:39:13.936Z,16.90
2019-06-07T22:41:43.265Z,17.00
2019-06-07T22:44:12.802Z,17.00
2019-06-07T22:46:41.933Z,17.00
2019-06-07T22:49:11.370Z,17.00
2019-06-07T22:51:40.497Z,16.90
2019-06-07T22:54:09.628Z,17.00
2019-06-07T22:56:57.754Z,17.00
2019-06-07T22:59:27.257Z,16.90
2019-06-07T23:01:56.326Z,16.90
2019-06-07T23:04:25.378Z,16.90
2019-06-07T23:06:54.745Z,16.90
2019-06-07T23:09:23.810Z,16.90
2019-06-07T23:11:56.230Z,16.80
2019-06-07T23:14:25.815Z,16.80
2019-06-07T23:16:56.221Z,16.90
2019-06-07T23:19:25.606Z,16.90
2019-06-07T23:21:54.650Z,16.90
2019-06-07T23:24:23.613Z,16.80
2019-06-07T23:26:52.696Z,16.80
2019-06-07T23:29:21.731Z,16.90
2019-06-07T23:31:50.879Z,16.90
2019-06-07T23:34:21.009Z,16.80
2019-06-07T23:36:50.190Z,16.70
2019-06-07T23:39:21.791Z,16.70
2019-06-07T23:41:50.264Z,16.60
2019-06-07T23:44:19.385Z,16.60
2019-06-07T23:46:48.495Z,16.60
2019-06-07T23:49:17.648Z,16.60
2019-06-07T23:51:46.803Z,16.60
2019-06-07T23:54:15.893Z,16.60
2019-06-07T23:56:44.904Z,16.60
2019-06-07T23:59:14.197Z,16.60
